Time;durP1;ratioP1;P1;durP2;ratioP2;P2;SDS_P1;SDS_P2;PMS_P1;PMS_P2;Temp;Humidity;BMP_temperature;BMP_pressure;BME280_temperature;BME280_humidity;BME280_pressure;Samples;Min_cycle;Max_cycle;Signal;HPM_P1;HPM_P2
2024/04/15 00:07:00;;;;;;;8;4.9;;;;;;;14.03;76.01;98611.666666667;;;;
2024/04/15 00:18:00;;;;;;;8;4.9;;;;;;;13.89;75.38;98593.333333333;;;;
2024/04/15 00:29:00;;;;;;;8.7;4.5;;;;;;;13.62;74.81;98570;;;;
2024/04/15 00:39:00;;;;;;;8.7;4.5;;;;;;;13.37;74.55;98550;;;;
2024/04/15 00:49:01;;;;;;;8.7;4.5;;;;;;;13.08;75.48;98545;;;;
2024/04/15 01:00:01;;;;;;;6.2;2.9;;;;;;;12.66;76.43;98525;;;;
2024/04/15 01:10:00;;;;;;;6.2;2.9;;;;;;;12.68;77.11;98516.666666667;;;;
2024/04/15 01:20:00;;;;;;;6.2;2.9;;;;;;;12.55;77.93;98496.666666667;;;;
2024/04/15 01:31:00;;;;;;;7.5;3.7;;;;;;;12.42;77.73;98473.333333333;;;;
2024/04/15 01:42:00;;;;;;;7.5;3.7;;;;;;;12.33;77.7;98453.333333333;;;;
2024/04/15 01:52:00;;;;;;;7.5;3.7;;;;;;;12.19;77.85;98425;;;;
2024/04/15 02:03:01;;;;;;;6.7;3.9;;;;;;;12.28;77.26;98398.333333333;;;;
2024/04/15 02:14:01;;;;;;;6.7;3.9;;;;;;;12.26;76.92;98381.666666667;;;;
2024/04/15 02:25:00;;;;;;;9.2;2.9;;;;;;;12.25;76.28;98365;;;;
2024/04/15 02:36:01;;;;;;;9.2;2.9;;;;;;;12.11;77.26;98340;;;;
2024/04/15 02:47:01;;;;;;;9.2;2.9;;;;;;;12.07;77.5;98321.666666667;;;;
2024/04/15 02:58:01;;;;;;;3.6;1.7;;;;;;;12.05;77.27;98285;;;;
2024/04/15 03:08:01;;;;;;;3.6;1.7;;;;;;;11.87;78.21;98268.333333333;;;;
2024/04/15 03:19:00;;;;;;;3.6;1.7;;;;;;;11.88;78.21;98250;;;;
2024/04/15 03:29:01;;;;;;;4.4;2;;;;;;;11.85;78.29;98223.333333333;;;;
2024/04/15 03:40:01;;;;;;;4.4;2;;;;;;;11.86;77.95;98195;;;;
2024/04/15 03:50:01;;;;;;;4.4;2;;;;;;;11.9;77.24;98183.333333333;;;;
2024/04/15 04:00:03;;;;;;;4.5;1.6;;;;;;;12.02;76.78;98161.666666667;;;;
2024/04/15 04:11:01;;;;;;;4.5;1.6;;;;;;;12;77.17;98156.666666667;;;;
2024/04/15 04:22:01;;;;;;;4.5;1.6;;;;;;;12.02;76.65;98130;;;;
2024/04/15 04:32:01;;;;;;;4.8;2.1;;;;;;;12.19;76.73;98103.333333333;;;;
2024/04/15 04:43:01;;;;;;;4.8;2.1;;;;;;;12.17;76.94;98111.666666667;;;;
2024/04/15 04:54:01;;;;;;;4.1;2.6;;;;;;;12.38;76.93;98151.666666667;;;;
2024/04/15 05:04:01;;;;;;;4.1;2.6;;;;;;;12.22;80.14;98126.666666667;;;;
2024/04/15 05:15:00;;;;;;;4.1;2.6;;;;;;;12.31;80.21;98171.666666667;;;;
2024/04/15 05:25:01;;;;;;;5;2.3;;;;;;;12.13;83.13;98186.666666667;;;;
2024/04/15 05:35:01;;;;;;;5;2.3;;;;;;;12.12;84.41;98146.666666667;;;;
2024/04/15 05:46:01;;;;;;;5;2.3;;;;;;;12.13;83;98173.333333333;;;;
2024/04/15 05:57:01;;;;;;;4.3;2.1;;;;;;;12.2;84.46;98115;;;;
2024/04/15 06:07:01;;;;;;;4.3;2.1;;;;;;;12.54;84.01;98126.666666667;;;;
2024/04/15 06:17:01;;;;;;;4.3;2.1;;;;;;;12.63;84.75;98128.333333333;;;;
2024/04/15 06:28:01;;;;;;;6.3;3.4;;;;;;;12.97;83.79;98125;;;;
2024/04/15 06:39:01;;;;;;;6.3;3.4;;;;;;;13.44;82.82;98105;;;;
2024/04/15 06:49:01;;;;;;;6.3;3.4;;;;;;;13.89;81.72;98101.666666667;;;;
2024/04/15 06:59:01;;;;;;;8.7;5.4;;;;;;;13.93;80.37;98125;;;;
2024/04/15 07:09:01;;;;;;;8.7;5.4;;;;;;;13.59;81.83;98160;;;;
2024/04/15 07:20:01;;;;;;;8.7;5.4;;;;;;;13.02;83.33;98145;;;;
2024/04/15 07:31:01;;;;;;;8.9;4.4;;;;;;;12.88;84.83;98126.666666667;;;;
2024/04/15 07:42:01;;;;;;;8.9;4.4;;;;;;;12.52;84.66;98116.666666667;;;;
2024/04/15 07:52:01;;;;;;;8.9;4.4;;;;;;;12.43;85.45;98106.666666667;;;;
2024/04/15 08:03:03;;;;;;;8.7;4.7;;;;;;;12.25;84.88;98113.333333333;;;;
2024/04/15 08:14:01;;;;;;;8.7;4.7;;;;;;;12.32;85.76;98101.666666667;;;;
2024/04/15 08:25:01;;;;;;;7.4;3.9;;;;;;;12.44;84.95;98113.333333333;;;;
2024/04/15 08:35:01;;;;;;;7.4;3.9;;;;;;;12.36;84.94;98111.666666667;;;;
2024/04/15 08:46:01;;;;;;;7.4;3.9;;;;;;;12.86;85.54;98076.666666667;;;;
2024/04/15 08:57:01;;;;;;;7.4;4.1;;;;;;;12.71;83.72;98098.333333333;;;;
2024/04/15 09:08:01;;;;;;;7.4;4.1;;;;;;;12.9;83.94;98073.333333333;;;;
2024/04/15 09:18:01;;;;;;;7.4;4.1;;;;;;;12.78;83.64;98080;;;;
2024/04/15 09:28:04;;;;;;;8.6;3.9;;;;;;;12.86;83.83;98108.333333333;;;;
2024/04/15 09:39:01;;;;;;;8.6;3.9;;;;;;;12.74;83.78;98138.333333333;;;;
2024/04/15 09:50:01;;;;;;;8.6;3.9;;;;;;;11.94;84.51;98126.666666667;;;;
2024/04/15 10:01:01;;;;;;;6.2;3.8;;;;;;;11.5;84.65;98126.666666667;;;;
2024/04/15 10:11:01;;;;;;;6.2;3.8;;;;;;;11.15;86.02;98108.333333333;;;;
2024/04/15 10:21:01;;;;;;;6.2;3.8;;;;;;;11.5;84.95;98090;;;;
2024/04/15 10:31:01;;;;;;;6.6;3;;;;;;;11.72;85.49;98068.333333333;;;;
2024/04/15 10:42:01;;;;;;;6.6;3;;;;;;;12.37;82.99;98046.666666667;;;;
2024/04/15 10:53:01;;;;;;;6.6;3;;;;;;;12.44;81.29;98090;;;;
2024/04/15 11:03:05;;;;;;;7.5;5.2;;;;;;;12.57;81.79;98083.333333333;;;;
2024/04/15 11:14:01;;;;;;;7.5;5.2;;;;;;;11.66;82.8;98088.333333333;;;;
2024/04/15 11:25:01;;;;;;;8.3;5.1;;;;;;;11.85;82.59;98051.666666667;;;;
2024/04/15 11:36:01;;;;;;;8.3;5.1;;;;;;;11.98;82.59;98056.666666667;;;;
2024/04/15 11:46:01;;;;;;;8.3;5.1;;;;;;;12.12;83.27;98031.666666667;;;;
2024/04/15 11:56:01;;;;;;;7;4;;;;;;;11.97;83.04;98020;;;;
2024/04/15 12:06:01;;;;;;;7;4;;;;;;;12.12;82.95;98005;;;;
2024/04/15 12:17:01;;;;;;;7;4;;;;;;;12.57;82.96;97968.333333333;;;;
2024/04/15 12:27:01;;;;;;;8.7;5.9;;;;;;;13.31;81.19;97943.333333333;;;;
2024/04/15 12:38:01;;;;;;;8.7;5.9;;;;;;;13.69;80.06;97933.333333333;;;;
2024/04/15 12:49:01;;;;;;;8.7;5.9;;;;;;;13.87;80.32;97911.666666667;;;;
2024/04/15 13:00:01;;;;;;;11;7.4;;;;;;;14.16;79.9;97910;;;;
2024/04/15 13:11:01;;;;;;;11;7.4;;;;;;;14.38;77.75;97881.666666667;;;;
2024/04/15 13:21:02;;;;;;;11;7.4;;;;;;;14.31;77.48;97873.333333333;;;;
2024/04/15 13:31:02;;;;;;;12.7;8.2;;;;;;;14.17;77.97;97836.666666667;;;;
2024/04/15 13:41:01;;;;;;;12.7;8.2;;;;;;;14.29;78.27;97833.333333333;;;;
2024/04/15 13:51:02;;;;;;;12.7;8.2;;;;;;;14.18;78.35;97845;;;;
2024/04/15 14:02:01;;;;;;;14.3;9.9;;;;;;;14.11;79.04;97855;;;;
2024/04/15 14:12:01;;;;;;;14.3;9.9;;;;;;;14.29;79.09;97825;;;;
2024/04/15 14:23:01;;;;;;;14.3;9.9;;;;;;;14.03;79.08;97815;;;;
2024/04/15 14:33:01;;;;;;;13.3;9.5;;;;;;;13.94;79.35;97818.333333333;;;;
2024/04/15 14:44:01;;;;;;;13.3;9.5;;;;;;;13.45;81.9;97826.666666667;;;;
2024/04/15 14:54:01;;;;;;;16.2;11.7;;;;;;;13.3;82.99;97785;;;;
2024/04/15 15:04:01;;;;;;;16.2;11.7;;;;;;;13.15;84.31;97751.666666667;;;;
2024/04/15 15:15:01;;;;;;;16.2;11.7;;;;;;;12.79;86.04;97711.666666667;;;;
2024/04/15 15:25:01;;;;;;;17.7;13.7;;;;;;;12.97;84.99;97686.666666667;;;;
2024/04/15 15:35:03;;;;;;;17.7;13.7;;;;;;;12.98;84.82;97708.333333333;;;;
2024/04/15 15:46:01;;;;;;;17.7;13.7;;;;;;;13.04;84.83;97701.666666667;;;;
2024/04/15 15:57:01;;;;;;;16.8;14.1;;;;;;;13;84.76;97701.666666667;;;;
2024/04/15 16:07:01;;;;;;;16.8;14.1;;;;;;;12.89;85.43;97673.333333333;;;;
2024/04/15 16:18:01;;;;;;;16.8;14.1;;;;;;;12.8;85.73;97670;;;;
2024/04/15 16:28:01;;;;;;;15.9;11.9;;;;;;;12.63;85.82;97636.666666667;;;;
2024/04/15 16:39:01;;;;;;;15.9;11.9;;;;;;;12.64;86.35;97605;;;;
2024/04/15 16:50:01;;;;;;;15.9;11.9;;;;;;;12.69;86.18;97606.666666667;;;;
2024/04/15 17:01:01;;;;;;;18.8;15.5;;;;;;;12.79;85.75;97596.666666667;;;;
2024/04/15 17:11:01;;;;;;;18.8;15.5;;;;;;;12.72;86.37;97605;;;;
2024/04/15 17:22:01;;;;;;;18.8;15.5;;;;;;;12.75;85.57;97581.666666667;;;;
2024/04/15 17:32:01;;;;;;;21.5;17;;;;;;;12.82;85.57;97563.333333333;;;;
2024/04/15 17:43:01;;;;;;;21.5;17;;;;;;;12.89;85.61;97550;;;;
2024/04/15 17:53:01;;;;;;;21.5;17;;;;;;;12.83;85.24;97533.333333333;;;;
2024/04/15 18:03:01;;;;;;;17.4;12.5;;;;;;;12.8;85.25;97540;;;;
2024/04/15 18:14:01;;;;;;;17.4;12.5;;;;;;;12.54;86.58;97523.333333333;;;;
2024/04/15 18:24:01;;;;;;;20.8;13.6;;;;;;;12.5;87.09;97508.333333333;;;;
2024/04/15 18:35:01;;;;;;;20.8;13.6;;;;;;;12.63;86.52;97493.333333333;;;;
2024/04/15 18:46:02;;;;;;;20.8;13.6;;;;;;;12.56;87.16;97475;;;;
2024/04/15 18:57:02;;;;;;;27;23.6;;;;;;;12.47;87.17;97453.333333333;;;;
2024/04/15 19:07:01;;;;;;;27;23.6;;;;;;;12.32;87.71;97440;;;;
2024/04/15 19:18:01;;;;;;;27;23.6;;;;;;;12.38;88.05;97431.666666667;;;;
2024/04/15 19:29:01;;;;;;;25.6;20.6;;;;;;;12.25;87.64;97423.333333333;;;;
2024/04/15 19:39:01;;;;;;;25.6;20.6;;;;;;;12.17;86.9;97420;;;;
2024/04/15 19:50:01;;;;;;;25.6;20.6;;;;;;;11.92;87.18;97410;;;;
2024/04/15 20:01:02;;;;;;;17.8;15.2;;;;;;;11.76;88.05;97406.666666667;;;;
2024/04/15 20:11:01;;;;;;;17.8;15.2;;;;;;;11.5;89.48;97363.333333333;;;;
2024/04/15 20:21:01;;;;;;;17.8;15.2;;;;;;;11.85;89.11;97365;;;;
2024/04/15 20:32:01;;;;;;;25.3;17.5;;;;;;;11.91;88.08;97348.333333333;;;;
2024/04/15 20:43:01;;;;;;;25.3;17.5;;;;;;;11.73;88.45;97311.666666667;;;;
2024/04/15 20:53:03;;;;;;;25.3;17.5;;;;;;;11.76;88.71;97321.666666667;;;;
2024/04/15 21:04:01;;;;;;;21.6;11.7;;;;;;;11.48;88.6;97321.666666667;;;;
2024/04/15 21:15:01;;;;;;;21.6;11.7;;;;;;;11.54;88.48;97326.666666667;;;;
2024/04/15 21:25:01;;;;;;;23;12.9;;;;;;;11.56;88.79;97336.666666667;;;;
2024/04/15 21:36:01;;;;;;;23;12.9;;;;;;;11.68;88.44;97300;;;;
2024/04/15 21:47:01;;;;;;;23;12.9;;;;;;;11.72;88.37;97290;;;;
2024/04/15 21:57:01;;;;;;;23.4;13.7;;;;;;;11.45;89.06;97236.666666667;;;;
2024/04/15 22:07:01;;;;;;;23.4;13.7;;;;;;;11.51;89.21;97228.333333333;;;;
2024/04/15 22:17:01;;;;;;;23.4;13.7;;;;;;;11.33;88.74;97141.666666667;;;;
2024/04/15 22:28:01;;;;;;;29.7;14.7;;;;;;;11.07;88.47;97176.666666667;;;;
2024/04/15 22:39:01;;;;;;;29.7;14.7;;;;;;;10.96;88.25;97165;;;;
2024/04/15 22:49:01;;;;;;;29.7;14.7;;;;;;;10.69;88.7;97168.333333333;;;;
2024/04/15 23:00:02;;;;;;;20.3;12.3;;;;;;;10.63;89.78;97150;;;;
2024/04/15 23:10:01;;;;;;;20.3;12.3;;;;;;;10.75;89.56;97146.666666667;;;;
2024/04/15 23:21:01;;;;;;;20.3;12.3;;;;;;;10.54;90.79;97136.666666667;;;;
2024/04/15 23:31:01;;;;;;;16.6;9.4;;;;;;;10.78;90.47;97151.666666667;;;;
2024/04/15 23:41:01;;;;;;;16.6;9.4;;;;;;;10.88;89.95;97146.666666667;;;;
2024/04/15 23:51:01;;;;;;;16.6;9.4;;;;;;;10.88;89.21;97116.666666667;;;;
